createdAt,value
2019-02-09T00:01:34.623Z,83.80
2019-02-09T00:04:03.796Z,83.90
2019-02-09T00:06:35.892Z,85.20
2019-02-09T00:09:08.173Z,84.80
2019-02-09T00:11:37.183Z,84.80
2019-02-09T00:14:06.187Z,84.80
2019-02-09T00:16:35.060Z,84.40
2019-02-09T00:19:03.984Z,84.40
2019-02-09T00:21:32.986Z,84.20
2019-02-09T00:24:01.981Z,84.40
2019-02-09T00:26:30.932Z,84.40
2019-02-09T00:29:00.145Z,84.40
2019-02-09T00:31:29.066Z,84.30
2019-02-09T00:33:58.015Z,84.30
2019-02-09T00:36:27.036Z,84.10
2019-02-09T00:38:56.000Z,84.10
2019-02-09T00:41:24.956Z,83.90
2019-02-09T00:43:53.823Z,83.90
2019-02-09T00:46:22.785Z,83.80
2019-02-09T00:48:51.727Z,84.00
2019-02-09T00:51:20.596Z,83.60
2019-02-09T00:53:49.461Z,83.60
2019-02-09T00:56:18.731Z,83.50
2019-02-09T00:58:47.685Z,83.30
2019-02-09T01:01:16.760Z,83.90
2019-02-09T01:03:45.745Z,83.30
2019-02-09T01:06:15.800Z,82.90
2019-02-09T01:08:45.065Z,82.30
2019-02-09T01:11:14.085Z,82.60
2019-02-09T01:13:43.393Z,82.00
2019-02-09T01:16:14.108Z,82.10
2019-02-09T01:18:45.389Z,81.90
2019-02-09T01:21:14.763Z,81.70
2019-02-09T01:23:43.696Z,81.60
2019-02-09T01:26:12.660Z,81.60
2019-02-09T01:28:41.528Z,81.50
2019-02-09T01:31:10.452Z,81.50
2019-02-09T01:33:39.640Z,81.80
2019-02-09T01:36:08.664Z,81.40
2019-02-09T01:38:38.490Z,80.90
2019-02-09T01:41:07.526Z,81.30
2019-02-09T01:43:36.912Z,81.10
2019-02-09T01:46:07.471Z,80.80
2019-02-09T01:48:36.378Z,79.80
2019-02-09T01:51:06.728Z,79.90
2019-02-09T01:53:35.697Z,79.60
2019-02-09T01:56:04.910Z,79.60
2019-02-09T01:58:33.780Z,79.00
2019-02-09T02:01:02.774Z,79.50
2019-02-09T02:03:31.629Z,79.30
2019-02-09T02:06:19.756Z,78.80
2019-02-09T02:08:48.696Z,79.10
2019-02-09T02:11:17.699Z,79.30
2019-02-09T02:13:46.655Z,79.70
2019-02-09T02:16:15.623Z,79.90
2019-02-09T02:19:03.755Z,80.00
2019-02-09T02:21:32.676Z,80.50
2019-02-09T02:24:01.693Z,80.80
2019-02-09T02:26:49.872Z,80.80
2019-02-09T02:29:18.860Z,80.90
2019-02-09T02:31:48.195Z,81.10
2019-02-09T02:34:17.128Z,81.90
2019-02-09T02:36:46.140Z,81.40
2019-02-09T02:39:15.073Z,81.60
2019-02-09T02:41:44.405Z,81.70
2019-02-09T02:44:13.424Z,81.70
2019-02-09T02:46:42.358Z,81.60
2019-02-09T02:49:11.368Z,81.70
2019-02-09T02:51:40.316Z,81.60
2019-02-09T02:54:09.444Z,81.80
2019-02-09T02:56:38.456Z,82.50
2019-02-09T02:59:07.787Z,81.90
2019-02-09T03:01:36.870Z,81.70
2019-02-09T03:04:06.065Z,81.60
2019-02-09T03:06:35.160Z,81.60
2019-02-09T03:09:06.568Z,81.80
2019-02-09T03:11:35.579Z,81.80
2019-02-09T03:14:04.891Z,81.60
2019-02-09T03:16:33.890Z,81.30
2019-02-09T03:19:02.930Z,81.80
2019-02-09T03:21:31.852Z,81.30
2019-02-09T03:24:00.792Z,81.10
2019-02-09T03:26:29.782Z,81.50
2019-02-09T03:29:02.248Z,81.50
2019-02-09T03:31:31.101Z,81.60
2019-02-09T03:33:59.971Z,81.70
2019-02-09T03:36:28.896Z,81.80
2019-02-09T03:38:58.218Z,81.80
2019-02-09T03:41:27.153Z,81.80
2019-02-09T03:43:56.157Z,81.50
2019-02-09T03:46:25.148Z,81.10
2019-02-09T03:48:54.244Z,81.70
2019-02-09T03:51:23.572Z,81.70
2019-02-09T03:53:52.580Z,81.60
2019-02-09T03:56:21.885Z,81.60
2019-02-09T03:58:51.730Z,81.40
2019-02-09T04:01:20.730Z,81.40
2019-02-09T04:03:49.683Z,81.30
2019-02-09T04:06:19.105Z,81.20
2019-02-09T04:08:47.977Z,81.20
2019-02-09T04:11:17.009Z,81.30
2019-02-09T04:13:46.853Z,81.10
2019-02-09T04:16:15.770Z,80.90
2019-02-09T04:18:44.677Z,80.80
2019-02-09T04:21:13.628Z,80.50
2019-02-09T04:23:42.620Z,80.60
2019-02-09T04:26:11.577Z,80.40
2019-02-09T04:28:42.452Z,80.20
2019-02-09T04:31:11.301Z,80.20
2019-02-09T04:33:40.166Z,80.50
2019-02-09T04:36:09.103Z,80.70
2019-02-09T04:38:37.944Z,80.50
2019-02-09T04:41:06.949Z,80.80
2019-02-09T04:43:35.817Z,80.70
2019-02-09T04:46:05.126Z,80.90
2019-02-09T04:48:34.165Z,80.90
2019-02-09T04:51:03.005Z,81.00
2019-02-09T04:53:31.928Z,81.20
2019-02-09T04:56:00.940Z,81.10
2019-02-09T04:58:29.963Z,81.20
2019-02-09T05:00:58.952Z,81.30
2019-02-09T05:03:27.885Z,81.10
2019-02-09T05:05:56.940Z,80.80
2019-02-09T05:08:25.808Z,80.70
2019-02-09T05:10:54.756Z,80.70
2019-02-09T05:13:23.674Z,80.40
2019-02-09T05:15:52.619Z,80.60
2019-02-09T05:18:21.560Z,80.10
2019-02-09T05:20:50.560Z,79.80
2019-02-09T05:23:19.573Z,79.30
2019-02-09T05:25:48.611Z,78.90
2019-02-09T05:28:17.606Z,79.40
2019-02-09T05:30:46.917Z,79.40
2019-02-09T05:33:15.954Z,79.70
2019-02-09T05:35:44.964Z,79.40
2019-02-09T05:38:13.961Z,79.10
2019-02-09T05:40:42.817Z,79.80
2019-02-09T05:43:11.743Z,79.50
2019-02-09T05:45:40.976Z,79.80
2019-02-09T05:48:10.003Z,79.70
2019-02-09T05:50:38.998Z,80.10
2019-02-09T05:53:10.441Z,80.50
2019-02-09T05:55:39.320Z,80.60
2019-02-09T05:58:08.657Z,80.80
2019-02-09T06:00:43.700Z,80.60
2019-02-09T06:03:12.626Z,80.50
2019-02-09T06:05:41.563Z,80.60
2019-02-09T06:08:10.648Z,80.20
2019-02-09T06:10:39.673Z,80.00
2019-02-09T06:13:08.660Z,79.80
2019-02-09T06:15:37.588Z,79.20
2019-02-09T06:18:06.584Z,79.10
2019-02-09T06:20:35.605Z,78.70
2019-02-09T06:23:04.637Z,78.60
2019-02-09T06:25:33.645Z,78.30
2019-02-09T06:28:02.704Z,77.50
2019-02-09T06:30:32.311Z,77.00
2019-02-09T06:33:01.259Z,76.60
2019-02-09T06:35:30.280Z,76.60
2019-02-09T06:37:59.369Z,75.20
2019-02-09T06:40:29.298Z,75.50
2019-02-09T06:42:58.280Z,74.00
2019-02-09T06:45:27.294Z,76.00
2019-02-09T06:48:26.742Z,75.70
2019-02-09T06:50:57.240Z,75.70
2019-02-09T06:53:26.472Z,76.50
2019-02-09T06:55:55.508Z,76.30
2019-02-09T06:58:24.428Z,76.30
2019-02-09T07:00:53.768Z,77.00
2019-02-09T07:03:24.212Z,77.40
2019-02-09T07:05:53.204Z,76.60
2019-02-09T07:08:22.231Z,76.50
2019-02-09T07:10:51.238Z,76.90
2019-02-09T07:13:20.267Z,77.50
2019-02-09T07:15:49.205Z,78.10
2019-02-09T07:18:18.138Z,77.40
2019-02-09T07:20:47.324Z,77.50
2019-02-09T07:23:16.477Z,77.60
2019-02-09T07:25:58.094Z,77.60
2019-02-09T07:28:24.407Z,78.00
2019-02-09T07:30:55.094Z,78.00
2019-02-09T07:33:24.668Z,77.80
2019-02-09T07:35:53.840Z,78.00
2019-02-09T07:38:24.632Z,78.30
2019-02-09T07:40:55.557Z,78.40
2019-02-09T07:43:28.009Z,78.30
2019-02-09T07:46:01.897Z,78.10
2019-02-09T07:48:33.061Z,78.00
2019-02-09T07:51:02.047Z,77.80
2019-02-09T07:53:33.854Z,77.70
2019-02-09T07:56:10.813Z,77.40
2019-02-09T07:58:40.484Z,77.50
2019-02-09T08:01:09.557Z,77.20
2019-02-09T08:03:38.648Z,77.30
2019-02-09T08:06:07.677Z,77.30
2019-02-09T08:08:38.245Z,77.10
2019-02-09T08:11:09.114Z,76.90
2019-02-09T08:13:37.993Z,77.20
2019-02-09T08:16:13.957Z,77.10
2019-02-09T08:18:43.990Z,76.90
2019-02-09T08:21:13.056Z,77.10
2019-02-09T08:23:47.242Z,77.40
2019-02-09T08:26:16.232Z,77.00
2019-02-09T08:28:46.585Z,77.70
2019-02-09T08:31:18.344Z,77.60
2019-02-09T08:33:49.856Z,77.50
2019-02-09T08:36:18.757Z,77.20
2019-02-09T08:38:47.632Z,77.50
2019-02-09T08:41:16.556Z,77.30
2019-02-09T08:44:05.636Z,77.60
2019-02-09T08:46:34.677Z,78.00
2019-02-09T08:49:03.792Z,77.90
2019-02-09T08:51:37.154Z,77.80
2019-02-09T08:54:06.168Z,77.70
2019-02-09T08:56:35.142Z,77.00
2019-02-09T08:59:05.553Z,77.20
2019-02-09T09:01:36.719Z,77.20
2019-02-09T09:04:06.426Z,77.30
2019-02-09T09:06:37.204Z,77.70
2019-02-09T09:09:10.601Z,77.90
2019-02-09T09:11:39.476Z,78.00
2019-02-09T09:14:08.725Z,77.80
2019-02-09T09:16:37.915Z,77.80
2019-02-09T09:19:06.924Z,77.30
2019-02-09T09:21:38.216Z,77.40
2019-02-09T09:24:09.258Z,77.90
2019-02-09T09:26:38.289Z,77.60
2019-02-09T09:29:07.327Z,77.30
2019-02-09T09:31:36.448Z,76.80
2019-02-09T09:34:06.010Z,77.00
2019-02-09T09:36:35.894Z,77.60
2019-02-09T09:39:08.466Z,76.80
2019-02-09T09:41:37.504Z,76.90
2019-02-09T09:44:06.543Z,77.40
2019-02-09T09:46:35.501Z,77.30
2019-02-09T09:49:04.730Z,78.70
2019-02-09T09:51:33.764Z,77.70
2019-02-09T09:54:02.738Z,77.80
2019-02-09T09:56:31.740Z,77.40
2019-02-09T09:59:03.225Z,77.70
2019-02-09T10:01:32.237Z,77.60
2019-02-09T10:04:01.486Z,76.60
2019-02-09T10:06:30.552Z,76.40
2019-02-09T10:08:59.528Z,76.60
2019-02-09T10:11:28.512Z,76.70
2019-02-09T10:13:57.637Z,76.70
2019-02-09T10:16:26.659Z,77.10
2019-02-09T10:18:55.773Z,77.30
2019-02-09T10:21:24.746Z,76.50
2019-02-09T10:23:53.849Z,76.80
2019-02-09T10:26:22.896Z,75.30
2019-02-09T10:29:03.944Z,76.50
2019-02-09T10:31:33.118Z,74.50
2019-02-09T10:34:02.162Z,73.00
2019-02-09T10:36:31.210Z,73.50
2019-02-09T10:39:00.309Z,73.50
2019-02-09T10:41:29.466Z,74.10
2019-02-09T10:43:58.622Z,73.80
2019-02-09T10:46:27.742Z,74.40
2019-02-09T10:48:56.658Z,74.30
2019-02-09T10:51:25.672Z,73.80
2019-02-09T10:53:54.624Z,72.50
2019-02-09T10:56:23.706Z,72.30
2019-02-09T10:58:52.729Z,72.60
2019-02-09T11:01:22.842Z,72.90
2019-02-09T11:03:51.912Z,72.20
2019-02-09T11:06:22.184Z,73.70
2019-02-09T11:08:51.317Z,73.00
2019-02-09T11:11:21.996Z,72.40
2019-02-09T11:13:51.156Z,72.30
2019-02-09T11:16:20.197Z,72.70
2019-02-09T11:18:49.212Z,72.30
2019-02-09T11:21:18.223Z,71.50
2019-02-09T11:23:47.173Z,71.30
2019-02-09T11:26:16.205Z,72.30
2019-02-09T11:28:45.186Z,71.50
2019-02-09T11:31:16.201Z,71.70
2019-02-09T11:33:45.201Z,70.90
2019-02-09T11:36:14.234Z,71.40
2019-02-09T11:38:43.304Z,70.30
2019-02-09T11:41:12.339Z,70.40
2019-02-09T11:43:41.266Z,69.10
2019-02-09T11:46:10.590Z,70.70
2019-02-09T11:48:39.593Z,68.70
2019-02-09T11:51:09.060Z,69.50
2019-02-09T11:53:38.544Z,68.70
2019-02-09T11:56:08.147Z,67.80
2019-02-09T11:58:37.084Z,68.10
2019-02-09T12:01:06.340Z,68.40
2019-02-09T12:03:35.419Z,69.10
2019-02-09T12:06:04.764Z,67.40
2019-02-09T12:08:33.633Z,68.90
2019-02-09T12:11:02.506Z,67.50
2019-02-09T12:13:31.624Z,65.80
2019-02-09T12:16:01.510Z,67.70
2019-02-09T12:18:30.782Z,66.80
2019-02-09T12:21:00.035Z,67.30
2019-02-09T12:23:29.042Z,66.30
2019-02-09T12:25:58.848Z,67.50
2019-02-09T12:28:28.847Z,67.20
2019-02-09T12:30:57.885Z,67.50
2019-02-09T12:33:26.857Z,68.30
2019-02-09T12:35:55.812Z,67.60
2019-02-09T12:38:25.944Z,68.70
2019-02-09T12:40:54.840Z,68.00
2019-02-09T12:43:23.877Z,68.40
2019-02-09T12:45:52.897Z,68.10
2019-02-09T12:48:21.928Z,69.40
2019-02-09T12:50:50.959Z,69.50
2019-02-09T12:53:19.999Z,69.50
2019-02-09T12:55:49.070Z,69.10
2019-02-09T12:58:17.966Z,69.20
2019-02-09T13:00:46.999Z,68.30
2019-02-09T13:03:18.886Z,67.80
2019-02-09T13:05:47.994Z,68.40
2019-02-09T13:08:17.070Z,68.60
2019-02-09T13:10:46.981Z,68.90
2019-02-09T13:13:16.004Z,67.80
2019-02-09T13:15:45.048Z,68.00
2019-02-09T13:18:14.196Z,68.00
2019-02-09T13:20:43.136Z,67.10
2019-02-09T13:23:12.180Z,68.10
2019-02-09T13:25:41.616Z,67.00
2019-02-09T13:28:10.663Z,68.60
2019-02-09T13:30:40.735Z,67.50
2019-02-09T13:33:09.928Z,68.40
2019-02-09T13:35:39.274Z,68.70
2019-02-09T13:38:08.391Z,68.10
2019-02-09T13:40:37.459Z,67.70
2019-02-09T13:43:06.592Z,68.20
2019-02-09T13:45:41.029Z,67.10
2019-02-09T13:48:10.204Z,67.50
2019-02-09T13:50:39.462Z,67.90
2019-02-09T13:53:09.410Z,67.20
2019-02-09T13:55:38.540Z,67.20
2019-02-09T13:58:07.772Z,68.20
2019-02-09T14:00:37.097Z,66.80
2019-02-09T14:03:07.336Z,66.20
2019-02-09T14:05:36.548Z,67.50
2019-02-09T14:08:08.262Z,65.80
2019-02-09T14:10:37.573Z,66.80
2019-02-09T14:13:14.020Z,66.60
2019-02-09T14:15:37.755Z,66.70
2019-02-09T14:18:09.234Z,65.70
2019-02-09T14:20:40.613Z,66.30
2019-02-09T14:23:09.984Z,66.90
2019-02-09T14:25:39.098Z,66.80
2019-02-09T14:28:08.647Z,68.00
2019-02-09T14:30:39.471Z,68.30
2019-02-09T14:33:10.041Z,68.90
2019-02-09T14:35:40.349Z,68.50
2019-02-09T14:38:09.554Z,68.50
2019-02-09T14:40:38.771Z,68.10
2019-02-09T14:43:08.589Z,69.00
2019-02-09T14:45:39.456Z,67.40
2019-02-09T14:48:08.417Z,67.60
2019-02-09T14:50:37.822Z,67.80
2019-02-09T14:53:07.556Z,67.70
2019-02-09T14:55:40.417Z,68.40
2019-02-09T14:58:09.632Z,68.10
2019-02-09T15:00:43.994Z,68.10
2019-02-09T15:03:13.797Z,68.70
2019-02-09T15:05:44.068Z,68.20
2019-02-09T15:08:13.086Z,68.50
2019-02-09T15:10:42.054Z,69.00
2019-02-09T15:13:12.237Z,69.30
2019-02-09T15:16:07.703Z,69.40
2019-02-09T15:18:36.817Z,69.70
2019-02-09T15:21:06.378Z,70.00
2019-02-09T15:23:35.415Z,69.50
2019-02-09T15:26:05.571Z,69.20
2019-02-09T15:28:34.799Z,68.80
2019-02-09T15:31:05.023Z,68.50
2019-02-09T15:33:34.629Z,68.20
2019-02-09T15:36:03.744Z,67.70
2019-02-09T15:38:32.761Z,67.50
2019-02-09T15:41:01.710Z,68.30
2019-02-09T15:43:31.001Z,67.40
2019-02-09T15:45:59.985Z,67.30
2019-02-09T15:48:28.925Z,68.00
2019-02-09T15:50:58.343Z,67.70
2019-02-09T15:53:27.472Z,68.20
2019-02-09T15:55:56.718Z,67.70
2019-02-09T15:58:25.741Z,69.20
2019-02-09T16:00:55.458Z,69.30
2019-02-09T16:03:24.402Z,70.10
2019-02-09T16:05:54.292Z,70.20
2019-02-09T16:08:24.013Z,70.40
2019-02-09T16:10:53.001Z,70.80
2019-02-09T16:13:22.171Z,70.90
2019-02-09T16:15:52.537Z,70.90
2019-02-09T16:18:21.839Z,71.10
2019-02-09T16:20:51.016Z,71.20
2019-02-09T16:23:20.219Z,70.70
2019-02-09T16:25:49.237Z,70.90
2019-02-09T16:28:18.220Z,70.60
2019-02-09T16:30:47.238Z,70.20
2019-02-09T16:33:16.270Z,70.30
2019-02-09T16:35:45.306Z,70.00
2019-02-09T16:38:34.333Z,70.10
2019-02-09T16:41:03.381Z,70.60
2019-02-09T16:43:32.326Z,70.50
2019-02-09T16:46:01.353Z,70.60
2019-02-09T16:48:30.386Z,70.60
2019-02-09T16:51:00.189Z,70.80
2019-02-09T16:53:29.099Z,70.90
2019-02-09T16:55:58.130Z,70.90
2019-02-09T16:58:27.121Z,71.30
2019-02-09T17:00:56.445Z,71.50
2019-02-09T17:03:25.374Z,72.30
2019-02-09T17:05:54.411Z,73.20
2019-02-09T17:08:23.401Z,73.30
2019-02-09T17:10:52.353Z,73.30
2019-02-09T17:13:21.218Z,73.10
2019-02-09T17:15:50.229Z,73.10
2019-02-09T17:18:19.269Z,72.80
2019-02-09T17:20:48.298Z,72.70
2019-02-09T17:23:17.313Z,72.60
2019-02-09T17:25:46.349Z,72.40
2019-02-09T17:28:15.353Z,72.40
2019-02-09T17:30:45.228Z,72.10
2019-02-09T17:33:14.112Z,72.00
2019-02-09T17:35:43.138Z,72.00
2019-02-09T17:38:13.027Z,71.80
2019-02-09T17:40:44.788Z,71.70
2019-02-09T17:43:13.837Z,72.20
2019-02-09T17:45:55.126Z,72.30
2019-02-09T17:48:24.272Z,72.30
2019-02-09T17:50:53.210Z,72.30
2019-02-09T17:53:22.168Z,72.40
2019-02-09T17:55:51.118Z,72.60
2019-02-09T17:58:20.145Z,72.80
2019-02-09T18:00:54.322Z,73.00
2019-02-09T18:03:23.683Z,73.00
2019-02-09T18:05:52.769Z,73.60
2019-02-09T18:08:23.580Z,73.90
2019-02-09T18:10:52.579Z,74.30
2019-02-09T18:13:21.528Z,74.10
2019-02-09T18:15:54.012Z,74.60
2019-02-09T18:18:23.071Z,74.50
2019-02-09T18:20:52.112Z,75.00
2019-02-09T18:23:20.991Z,75.20
2019-02-09T18:25:50.039Z,75.30
2019-02-09T18:28:19.063Z,75.50
2019-02-09T18:30:47.996Z,75.80
2019-02-09T18:33:16.947Z,75.90
2019-02-09T18:35:46.042Z,75.80
2019-02-09T18:38:15.334Z,75.60
2019-02-09T18:40:44.760Z,75.50
2019-02-09T18:43:13.734Z,75.40
2019-02-09T18:45:42.777Z,75.10
2019-02-09T18:48:12.696Z,74.90
2019-02-09T18:50:43.733Z,74.70
2019-02-09T18:53:13.098Z,74.30
2019-02-09T18:55:42.120Z,73.80
2019-02-09T18:58:11.167Z,73.90
2019-02-09T19:00:40.464Z,73.70
2019-02-09T19:03:09.726Z,73.40
2019-02-09T19:05:38.742Z,73.30
2019-02-09T19:08:08.399Z,73.30
2019-02-09T19:10:38.164Z,73.10
2019-02-09T19:13:07.226Z,73.40
2019-02-09T19:15:36.460Z,73.60
2019-02-09T19:18:06.702Z,73.70
2019-02-09T19:20:38.605Z,73.60
2019-02-09T19:23:08.093Z,74.00
2019-02-09T19:25:37.454Z,74.10
2019-02-09T19:28:06.669Z,74.30
2019-02-09T19:30:35.981Z,74.30
2019-02-09T19:33:05.561Z,74.30
2019-02-09T19:35:34.611Z,74.40
2019-02-09T19:38:03.862Z,74.40
2019-02-09T19:40:32.760Z,74.50
2019-02-09T19:43:01.787Z,74.50
2019-02-09T19:45:31.940Z,74.40
2019-02-09T19:48:01.018Z,74.30
2019-02-09T19:50:30.129Z,74.50
2019-02-09T19:52:59.332Z,74.50
2019-02-09T19:55:29.140Z,74.50
2019-02-09T19:57:58.256Z,74.30
2019-02-09T20:00:29.301Z,74.40
2019-02-09T20:02:58.338Z,74.10
2019-02-09T20:05:29.000Z,73.90
2019-02-09T20:07:58.055Z,73.80
2019-02-09T20:10:29.852Z,74.20
2019-02-09T20:12:58.999Z,73.50
2019-02-09T20:15:28.039Z,74.00
2019-02-09T20:17:56.977Z,73.80
2019-02-09T20:20:26.028Z,74.00
2019-02-09T20:22:55.113Z,74.00
2019-02-09T20:25:24.191Z,74.10
2019-02-09T20:27:53.552Z,73.80
2019-02-09T20:30:24.956Z,73.70
2019-02-09T20:32:54.236Z,74.00
2019-02-09T20:35:27.812Z,73.90
2019-02-09T20:37:54.862Z,73.90
2019-02-09T20:40:40.992Z,73.90
2019-02-09T20:43:11.964Z,73.70
2019-02-09T20:45:41.397Z,73.80
2019-02-09T20:48:10.876Z,73.90
2019-02-09T20:50:39.997Z,73.70
2019-02-09T20:53:11.309Z,73.60
2019-02-09T20:55:42.369Z,72.90
2019-02-09T20:58:12.948Z,73.10
2019-02-09T21:00:41.992Z,73.00
2019-02-09T21:03:11.001Z,73.10
2019-02-09T21:05:40.426Z,73.20
2019-02-09T21:08:09.683Z,73.30
2019-02-09T21:10:39.516Z,73.30
2019-02-09T21:13:08.546Z,73.40
2019-02-09T21:15:37.602Z,73.10
2019-02-09T21:18:07.154Z,73.20
2019-02-09T21:20:36.680Z,73.30
2019-02-09T21:23:06.512Z,73.40
2019-02-09T21:25:37.796Z,73.30
2019-02-09T21:28:07.086Z,73.40
2019-02-09T21:30:37.101Z,73.10
2019-02-09T21:33:08.670Z,72.80
2019-02-09T21:35:43.752Z,72.90
2019-02-09T21:38:08.693Z,72.80
2019-02-09T21:40:37.745Z,72.90
2019-02-09T21:43:06.783Z,72.80
2019-02-09T21:45:35.982Z,72.60
2019-02-09T21:48:05.446Z,72.70
2019-02-09T21:50:35.967Z,72.40
2019-02-09T21:53:06.260Z,72.30
2019-02-09T21:55:36.169Z,72.30
2019-02-09T21:58:08.771Z,72.30
2019-02-09T22:00:39.834Z,72.30
2019-02-09T22:03:10.592Z,72.40
2019-02-09T22:05:40.080Z,72.20
2019-02-09T22:08:10.497Z,72.60
2019-02-09T22:10:39.573Z,72.10
2019-02-09T22:13:08.716Z,72.40
2019-02-09T22:15:39.089Z,72.30
2019-02-09T22:18:08.559Z,72.00
2019-02-09T22:20:37.512Z,71.70
2019-02-09T22:23:06.576Z,72.00
2019-02-09T22:25:35.602Z,71.90
2019-02-09T22:28:05.015Z,71.90
2019-02-09T22:30:35.688Z,72.60
2019-02-09T22:33:04.911Z,71.80
2019-02-09T22:35:34.029Z,71.40
2019-02-09T22:38:08.485Z,71.10
2019-02-09T22:40:38.225Z,72.30
2019-02-09T22:43:30.492Z,71.60
2019-02-09T22:45:59.891Z,70.40
2019-02-09T22:48:29.972Z,70.90
2019-02-09T22:50:59.207Z,71.70
2019-02-09T22:53:28.575Z,69.90
2019-02-09T22:55:57.836Z,70.00
2019-02-09T22:58:29.697Z,70.00
2019-02-09T23:01:33.499Z,69.90
2019-02-09T23:04:16.412Z,69.80
2019-02-09T23:07:16.022Z,69.70
2019-02-09T23:09:58.993Z,71.00
2019-02-09T23:12:29.580Z,69.60
2019-02-09T23:14:58.663Z,69.60
2019-02-09T23:17:27.755Z,69.80
2019-02-09T23:19:56.701Z,69.50
2019-02-09T23:22:27.776Z,69.30
2019-02-09T23:24:56.649Z,69.80
2019-02-09T23:27:44.781Z,69.30
2019-02-09T23:30:13.870Z,69.40
2019-02-09T23:32:45.762Z,69.50
2019-02-09T23:35:54.724Z,69.80
2019-02-09T23:38:26.149Z,69.90
2019-02-09T23:40:57.936Z,70.10
2019-02-09T23:43:26.864Z,70.00
2019-02-09T23:45:55.817Z,69.70
2019-02-09T23:48:25.170Z,69.60
2019-02-09T23:50:54.502Z,70.90
2019-02-09T23:53:23.975Z,69.50
2019-02-09T23:55:52.859Z,69.60
2019-02-09T23:58:22.145Z,69.80
